sensor_id;sensor_type;location;lat;lon;timestamp;temperature;humidity
11132;DHT22;5620;53.570;9.718;2023-04-15T00:00:18;9.80;3.60
11132;DHT22;5620;53.570;9.718;2023-04-15T00:02:44;9.80;8.50
11132;DHT22;5620;53.570;9.718;2023-04-15T00:05:13;9.90;12.00
11132;DHT22;5620;53.570;9.718;2023-04-15T00:07:38;9.90;15.40
11132;DHT22;5620;53.570;9.718;2023-04-15T00:10:06;10.00;10.70
11132;DHT22;5620;53.570;9.718;2023-04-15T00:12:33;10.00;12.60
11132;DHT22;5620;53.570;9.718;2023-04-15T00:15:01;10.00;14.40
11132;DHT22;5620;53.570;9.718;2023-04-15T00:17:28;10.00;14.50
11132;DHT22;5620;53.570;9.718;2023-04-15T00:19:56;10.00;9.90
11132;DHT22;5620;53.570;9.718;2023-04-15T00:22:22;9.90;17.30
11132;DHT22;5620;53.570;9.718;2023-04-15T00:24:51;9.90;19.40
11132;DHT22;5620;53.570;9.718;2023-04-15T00:27:17;10.00;24.70
11132;DHT22;5620;53.570;9.718;2023-04-15T00:29:45;9.90;28.00
11132;DHT22;5620;53.570;9.718;2023-04-15T00:32:15;9.90;32.50
11132;DHT22;5620;53.570;9.718;2023-04-15T00:34:42;9.90;34.80
11132;DHT22;5620;53.570;9.718;2023-04-15T00:37:09;9.90;36.90
11132;DHT22;5620;53.570;9.718;2023-04-15T00:39:36;9.90;41.20
11132;DHT22;5620;53.570;9.718;2023-04-15T00:42:05;9.90;43.80
11132;DHT22;5620;53.570;9.718;2023-04-15T00:44:34;9.90;60.70
11132;DHT22;5620;53.570;9.718;2023-04-15T00:47:04;9.90;60.90
11132;DHT22;5620;53.570;9.718;2023-04-15T00:49:32;9.90;61.60
11132;DHT22;5620;53.570;9.718;2023-04-15T00:51:59;9.90;61.00
11132;DHT22;5620;53.570;9.718;2023-04-15T00:54:26;9.90;61.80
11132;DHT22;5620;53.570;9.718;2023-04-15T00:56:54;10.00;66.60
11132;DHT22;5620;53.570;9.718;2023-04-15T00:59:22;9.90;77.70
11132;DHT22;5620;53.570;9.718;2023-04-15T01:01:51;10.00;79.20
11132;DHT22;5620;53.570;9.718;2023-04-15T01:04:22;10.00;78.10
11132;DHT22;5620;53.570;9.718;2023-04-15T01:06:49;9.90;83.10
11132;DHT22;5620;53.570;9.718;2023-04-15T01:09:18;10.00;90.10
11132;DHT22;5620;53.570;9.718;2023-04-15T01:11:44;9.90;92.10
11132;DHT22;5620;53.570;9.718;2023-04-15T01:14:10;9.90;96.50
11132;DHT22;5620;53.570;9.718;2023-04-15T01:16:37;9.90;99.90
11132;DHT22;5620;53.570;9.718;2023-04-15T01:19:08;9.80;99.90
11132;DHT22;5620;53.570;9.718;2023-04-15T01:21:39;9.80;99.90
11132;DHT22;5620;53.570;9.718;2023-04-15T01:24:09;9.80;99.90
11132;DHT22;5620;53.570;9.718;2023-04-15T01:26:39;9.80;99.90
11132;DHT22;5620;53.570;9.718;2023-04-15T01:29:07;9.90;99.90
11132;DHT22;5620;53.570;9.718;2023-04-15T01:31:33;9.90;99.90
11132;DHT22;5620;53.570;9.718;2023-04-15T01:33:59;9.90;99.90
11132;DHT22;5620;53.570;9.718;2023-04-15T01:36:31;9.80;99.90
11132;DHT22;5620;53.570;9.718;2023-04-15T01:39:01;9.80;99.90
11132;DHT22;5620;53.570;9.718;2023-04-15T01:41:29;9.80;99.90
11132;DHT22;5620;53.570;9.718;2023-04-15T01:43:58;9.80;99.90
11132;DHT22;5620;53.570;9.718;2023-04-15T01:46:25;9.80;99.90
11132;DHT22;5620;53.570;9.718;2023-04-15T01:48:52;9.80;99.90
11132;DHT22;5620;53.570;9.718;2023-04-15T01:51:20;9.80;99.90
11132;DHT22;5620;53.570;9.718;2023-04-15T01:53:48;9.90;99.90
11132;DHT22;5620;53.570;9.718;2023-04-15T01:56:14;9.80;99.90
11132;DHT22;5620;53.570;9.718;2023-04-15T01:58:42;9.90;99.90
11132;DHT22;5620;53.570;9.718;2023-04-15T02:01:09;9.80;99.90
11132;DHT22;5620;53.570;9.718;2023-04-15T02:03:39;9.90;99.90
11132;DHT22;5620;53.570;9.718;2023-04-15T02:06:06;9.80;99.90
11132;DHT22;5620;53.570;9.718;2023-04-15T02:08:33;9.90;99.90
11132;DHT22;5620;53.570;9.718;2023-04-15T02:11:01;9.80;99.90
11132;DHT22;5620;53.570;9.718;2023-04-15T02:13:29;9.90;99.90
11132;DHT22;5620;53.570;9.718;2023-04-15T02:15:56;9.90;99.90
11132;DHT22;5620;53.570;9.718;2023-04-15T02:18:23;9.90;99.90
11132;DHT22;5620;53.570;9.718;2023-04-15T02:20:51;9.90;99.90
11132;DHT22;5620;53.570;9.718;2023-04-15T02:23:17;9.90;99.90
11132;DHT22;5620;53.570;9.718;2023-04-15T02:25:45;9.80;99.90
11132;DHT22;5620;53.570;9.718;2023-04-15T02:28:12;9.90;99.90
11132;DHT22;5620;53.570;9.718;2023-04-15T02:30:40;9.90;99.90
11132;DHT22;5620;53.570;9.718;2023-04-15T02:33:06;9.80;99.90
11132;DHT22;5620;53.570;9.718;2023-04-15T02:35:33;9.80;99.90
11132;DHT22;5620;53.570;9.718;2023-04-15T02:37:59;9.80;99.90
11132;DHT22;5620;53.570;9.718;2023-04-15T02:40:25;9.80;1.00
11132;DHT22;5620;53.570;9.718;2023-04-15T02:42:53;9.80;1.00
11132;DHT22;5620;53.570;9.718;2023-04-15T02:45:21;9.80;1.00
11132;DHT22;5620;53.570;9.718;2023-04-15T02:47:48;9.80;1.00
11132;DHT22;5620;53.570;9.718;2023-04-15T02:50:14;9.80;1.00
11132;DHT22;5620;53.570;9.718;2023-04-15T02:52:42;9.80;1.00
11132;DHT22;5620;53.570;9.718;2023-04-15T02:55:10;9.80;1.00
11132;DHT22;5620;53.570;9.718;2023-04-15T02:57:37;9.80;1.00
11132;DHT22;5620;53.570;9.718;2023-04-15T03:00:04;9.80;1.00
11132;DHT22;5620;53.570;9.718;2023-04-15T03:02:36;9.80;1.00
11132;DHT22;5620;53.570;9.718;2023-04-15T03:05:03;9.80;1.00
11132;DHT22;5620;53.570;9.718;2023-04-15T03:07:30;9.70;1.00
11132;DHT22;5620;53.570;9.718;2023-04-15T03:09:58;9.70;1.00
11132;DHT22;5620;53.570;9.718;2023-04-15T03:12:24;9.70;1.00
11132;DHT22;5620;53.570;9.718;2023-04-15T03:14:50;9.70;1.00
11132;DHT22;5620;53.570;9.718;2023-04-15T03:17:18;9.70;1.00
11132;DHT22;5620;53.570;9.718;2023-04-15T03:19:43;9.70;1.00
11132;DHT22;5620;53.570;9.718;2023-04-15T03:22:11;9.60;1.00
11132;DHT22;5620;53.570;9.718;2023-04-15T03:24:39;9.70;1.00
11132;DHT22;5620;53.570;9.718;2023-04-15T03:27:08;9.60;1.00
11132;DHT22;5620;53.570;9.718;2023-04-15T03:29:35;9.60;1.00
11132;DHT22;5620;53.570;9.718;2023-04-15T03:32:03;9.60;1.00
11132;DHT22;5620;53.570;9.718;2023-04-15T03:34:29;9.60;1.00
11132;DHT22;5620;53.570;9.718;2023-04-15T03:36:56;9.60;23.00
11132;DHT22;5620;53.570;9.718;2023-04-15T03:39:23;9.60;24.10
11132;DHT22;5620;53.570;9.718;2023-04-15T03:41:51;9.60;59.30
11132;DHT22;5620;53.570;9.718;2023-04-15T03:44:23;9.60;76.30
11132;DHT22;5620;53.570;9.718;2023-04-15T03:46:49;9.60;88.80
11132;DHT22;5620;53.570;9.718;2023-04-15T03:49:17;9.70;93.40
11132;DHT22;5620;53.570;9.718;2023-04-15T03:51:44;9.70;94.70
11132;DHT22;5620;53.570;9.718;2023-04-15T03:54:09;9.70;99.90
11132;DHT22;5620;53.570;9.718;2023-04-15T03:56:37;9.60;99.90
11132;DHT22;5620;53.570;9.718;2023-04-15T03:59:04;9.70;99.90
11132;DHT22;5620;53.570;9.718;2023-04-15T04:01:31;9.70;99.90
11132;DHT22;5620;53.570;9.718;2023-04-15T04:03:58;9.70;99.90
11132;DHT22;5620;53.570;9.718;2023-04-15T04:06:25;9.70;99.90
11132;DHT22;5620;53.570;9.718;2023-04-15T04:08:51;9.60;99.90
11132;DHT22;5620;53.570;9.718;2023-04-15T04:11:20;9.60;99.90
11132;DHT22;5620;53.570;9.718;2023-04-15T04:13:48;9.60;99.90
11132;DHT22;5620;53.570;9.718;2023-04-15T04:16:15;9.70;99.90
11132;DHT22;5620;53.570;9.718;2023-04-15T04:18:41;9.70;99.90
11132;DHT22;5620;53.570;9.718;2023-04-15T04:21:09;9.70;99.90
11132;DHT22;5620;53.570;9.718;2023-04-15T04:23:35;9.80;99.90
11132;DHT22;5620;53.570;9.718;2023-04-15T04:26:03;9.80;99.90
11132;DHT22;5620;53.570;9.718;2023-04-15T04:28:30;9.80;99.90
11132;DHT22;5620;53.570;9.718;2023-04-15T04:30:57;9.80;99.90
11132;DHT22;5620;53.570;9.718;2023-04-15T04:33:24;9.80;99.90
11132;DHT22;5620;53.570;9.718;2023-04-15T04:35:50;9.80;99.90
11132;DHT22;5620;53.570;9.718;2023-04-15T04:38:18;9.80;99.90
11132;DHT22;5620;53.570;9.718;2023-04-15T04:40:46;9.80;1.00
11132;DHT22;5620;53.570;9.718;2023-04-15T04:43:21;9.80;1.00
11132;DHT22;5620;53.570;9.718;2023-04-15T04:45:47;9.80;1.00
11132;DHT22;5620;53.570;9.718;2023-04-15T04:48:14;9.80;1.00
11132;DHT22;5620;53.570;9.718;2023-04-15T04:50:44;9.90;1.00
11132;DHT22;5620;53.570;9.718;2023-04-15T04:53:11;9.90;1.00
11132;DHT22;5620;53.570;9.718;2023-04-15T04:55:38;9.90;1.00
11132;DHT22;5620;53.570;9.718;2023-04-15T04:58:05;9.90;1.00
11132;DHT22;5620;53.570;9.718;2023-04-15T05:00:31;9.90;1.00
11132;DHT22;5620;53.570;9.718;2023-04-15T05:02:56;10.00;1.00
11132;DHT22;5620;53.570;9.718;2023-04-15T05:05:22;9.90;1.00
11132;DHT22;5620;53.570;9.718;2023-04-15T05:07:49;10.00;1.00
11132;DHT22;5620;53.570;9.718;2023-04-15T05:10:14;10.00;1.00
11132;DHT22;5620;53.570;9.718;2023-04-15T05:12:40;10.00;1.00
11132;DHT22;5620;53.570;9.718;2023-04-15T05:15:06;10.00;1.00
11132;DHT22;5620;53.570;9.718;2023-04-15T05:17:36;10.00;1.00
11132;DHT22;5620;53.570;9.718;2023-04-15T05:20:03;10.00;1.00
11132;DHT22;5620;53.570;9.718;2023-04-15T05:22:30;10.10;1.00
11132;DHT22;5620;53.570;9.718;2023-04-15T05:24:57;10.10;1.00
11132;DHT22;5620;53.570;9.718;2023-04-15T05:27:27;10.10;1.00
11132;DHT22;5620;53.570;9.718;2023-04-15T05:29:54;10.20;1.00
11132;DHT22;5620;53.570;9.718;2023-04-15T05:32:19;10.20;1.00
11132;DHT22;5620;53.570;9.718;2023-04-15T05:34:45;10.10;1.00
11132;DHT22;5620;53.570;9.718;2023-04-15T05:37:12;10.10;1.00
11132;DHT22;5620;53.570;9.718;2023-04-15T05:39:39;10.20;1.00
11132;DHT22;5620;53.570;9.718;2023-04-15T05:42:05;10.20;10.80
11132;DHT22;5620;53.570;9.718;2023-04-15T05:44:32;10.30;45.90
11132;DHT22;5620;53.570;9.718;2023-04-15T05:47:00;10.30;55.10
11132;DHT22;5620;53.570;9.718;2023-04-15T05:49:26;10.40;45.00
11132;DHT22;5620;53.570;9.718;2023-04-15T05:51:52;10.40;36.30
11132;DHT22;5620;53.570;9.718;2023-04-15T05:54:19;10.50;29.00
11132;DHT22;5620;53.570;9.718;2023-04-15T05:56:45;10.50;19.10
11132;DHT22;5620;53.570;9.718;2023-04-15T05:59:11;10.50;5.90
11132;DHT22;5620;53.570;9.718;2023-04-15T06:01:37;10.50;1.00
11132;DHT22;5620;53.570;9.718;2023-04-15T06:04:03;10.50;1.00
11132;DHT22;5620;53.570;9.718;2023-04-15T06:06:30;10.50;43.90
11132;DHT22;5620;53.570;9.718;2023-04-15T06:08:57;10.50;78.20
11132;DHT22;5620;53.570;9.718;2023-04-15T06:11:25;10.60;62.30
11132;DHT22;5620;53.570;9.718;2023-04-15T06:13:53;10.60;67.90
11132;DHT22;5620;53.570;9.718;2023-04-15T06:16:20;10.50;53.20
11132;DHT22;5620;53.570;9.718;2023-04-15T06:18:48;10.60;89.00
11132;DHT22;5620;53.570;9.718;2023-04-15T06:21:15;10.60;99.90
11132;DHT22;5620;53.570;9.718;2023-04-15T06:23:41;10.60;93.50
11132;DHT22;5620;53.570;9.718;2023-04-15T06:26:08;10.60;93.00
11132;DHT22;5620;53.570;9.718;2023-04-15T06:28:36;10.60;99.90
11132;DHT22;5620;53.570;9.718;2023-04-15T06:31:03;10.70;99.90
11132;DHT22;5620;53.570;9.718;2023-04-15T06:33:30;10.80;99.90
11132;DHT22;5620;53.570;9.718;2023-04-15T06:35:56;10.80;99.90
11132;DHT22;5620;53.570;9.718;2023-04-15T06:38:23;10.80;99.90
11132;DHT22;5620;53.570;9.718;2023-04-15T06:40:49;10.80;99.90
11132;DHT22;5620;53.570;9.718;2023-04-15T06:43:16;10.90;96.20
11132;DHT22;5620;53.570;9.718;2023-04-15T06:45:43;10.80;95.60
11132;DHT22;5620;53.570;9.718;2023-04-15T06:48:09;10.80;99.90
11132;DHT22;5620;53.570;9.718;2023-04-15T06:50:34;10.80;97.60
11132;DHT22;5620;53.570;9.718;2023-04-15T06:53:00;10.70;95.70
11132;DHT22;5620;53.570;9.718;2023-04-15T06:55:28;10.70;99.90
11132;DHT22;5620;53.570;9.718;2023-04-15T06:57:55;10.70;99.90
11132;DHT22;5620;53.570;9.718;2023-04-15T07:00:22;10.70;99.90
11132;DHT22;5620;53.570;9.718;2023-04-15T07:02:50;10.80;99.90
11132;DHT22;5620;53.570;9.718;2023-04-15T07:05:18;10.80;99.90
11132;DHT22;5620;53.570;9.718;2023-04-15T07:07:44;10.90;99.90
11132;DHT22;5620;53.570;9.718;2023-04-15T07:10:11;10.90;99.90
11132;DHT22;5620;53.570;9.718;2023-04-15T07:12:39;10.90;99.90
11132;DHT22;5620;53.570;9.718;2023-04-15T07:15:11;11.00;99.90
11132;DHT22;5620;53.570;9.718;2023-04-15T07:17:40;11.00;99.90
11132;DHT22;5620;53.570;9.718;2023-04-15T07:20:11;11.10;99.90
11132;DHT22;5620;53.570;9.718;2023-04-15T07:22:37;11.10;99.90
11132;DHT22;5620;53.570;9.718;2023-04-15T07:25:06;11.10;99.90
11132;DHT22;5620;53.570;9.718;2023-04-15T07:27:33;11.10;99.90
11132;DHT22;5620;53.570;9.718;2023-04-15T07:29:59;11.10;99.90
11132;DHT22;5620;53.570;9.718;2023-04-15T07:32:27;11.10;99.90
11132;DHT22;5620;53.570;9.718;2023-04-15T07:34:54;11.20;99.90
11132;DHT22;5620;53.570;9.718;2023-04-15T07:37:22;11.30;99.90
11132;DHT22;5620;53.570;9.718;2023-04-15T07:39:51;11.40;99.90
11132;DHT22;5620;53.570;9.718;2023-04-15T07:42:18;11.40;99.90
11132;DHT22;5620;53.570;9.718;2023-04-15T07:44:44;11.50;99.90
11132;DHT22;5620;53.570;9.718;2023-04-15T07:47:11;11.50;96.60
11132;DHT22;5620;53.570;9.718;2023-04-15T07:49:40;11.50;99.90
11132;DHT22;5620;53.570;9.718;2023-04-15T07:52:28;11.60;99.90
11132;DHT22;5620;53.570;9.718;2023-04-15T07:54:54;11.70;95.50
11132;DHT22;5620;53.570;9.718;2023-04-15T07:57:20;11.70;41.30
11132;DHT22;5620;53.570;9.718;2023-04-15T07:59:45;11.70;33.50
11132;DHT22;5620;53.570;9.718;2023-04-15T08:02:11;11.80;21.00
11132;DHT22;5620;53.570;9.718;2023-04-15T08:04:38;11.80;1.00
11132;DHT22;5620;53.570;9.718;2023-04-15T08:07:04;11.80;1.00
11132;DHT22;5620;53.570;9.718;2023-04-15T08:09:31;11.90;1.00
11132;DHT22;5620;53.570;9.718;2023-04-15T08:11:58;11.90;1.00
11132;DHT22;5620;53.570;9.718;2023-04-15T08:14:24;11.90;1.00
11132;DHT22;5620;53.570;9.718;2023-04-15T08:16:51;11.90;1.00
11132;DHT22;5620;53.570;9.718;2023-04-15T08:19:19;12.00;1.00
11132;DHT22;5620;53.570;9.718;2023-04-15T08:21:46;12.00;1.00
11132;DHT22;5620;53.570;9.718;2023-04-15T08:24:13;12.10;1.00
11132;DHT22;5620;53.570;9.718;2023-04-15T08:26:42;12.10;1.00
11132;DHT22;5620;53.570;9.718;2023-04-15T08:29:10;12.10;1.00
11132;DHT22;5620;53.570;9.718;2023-04-15T08:31:35;12.20;1.00
11132;DHT22;5620;53.570;9.718;2023-04-15T08:34:02;12.20;1.00
11132;DHT22;5620;53.570;9.718;2023-04-15T08:36:30;12.20;1.00
11132;DHT22;5620;53.570;9.718;2023-04-15T08:38:57;12.30;1.00
11132;DHT22;5620;53.570;9.718;2023-04-15T08:41:24;12.40;1.00
11132;DHT22;5620;53.570;9.718;2023-04-15T08:44:04;12.50;1.00
11132;DHT22;5620;53.570;9.718;2023-04-15T08:46:31;12.50;1.00
11132;DHT22;5620;53.570;9.718;2023-04-15T08:48:57;12.50;1.00
11132;DHT22;5620;53.570;9.718;2023-04-15T08:51:23;12.50;99.90
11132;DHT22;5620;53.570;9.718;2023-04-15T08:53:52;12.40;99.90
11132;DHT22;5620;53.570;9.718;2023-04-15T08:56:21;12.30;99.90
11132;DHT22;5620;53.570;9.718;2023-04-15T08:58:50;12.20;99.90
11132;DHT22;5620;53.570;9.718;2023-04-15T09:01:21;12.20;99.90
11132;DHT22;5620;53.570;9.718;2023-04-15T09:03:49;12.30;99.90
11132;DHT22;5620;53.570;9.718;2023-04-15T09:06:17;12.30;99.90
11132;DHT22;5620;53.570;9.718;2023-04-15T09:08:45;12.30;99.90
11132;DHT22;5620;53.570;9.718;2023-04-15T09:11:15;12.30;99.90
11132;DHT22;5620;53.570;9.718;2023-04-15T09:13:43;12.40;99.90
11132;DHT22;5620;53.570;9.718;2023-04-15T09:16:10;12.50;99.90
11132;DHT22;5620;53.570;9.718;2023-04-15T09:18:39;12.60;99.90
11132;DHT22;5620;53.570;9.718;2023-04-15T09:21:11;12.80;99.90
11132;DHT22;5620;53.570;9.718;2023-04-15T09:23:58;13.00;99.90
11132;DHT22;5620;53.570;9.718;2023-04-15T09:26:37;13.10;99.90
11132;DHT22;5620;53.570;9.718;2023-04-15T09:29:08;13.20;99.90
11132;DHT22;5620;53.570;9.718;2023-04-15T09:31:36;13.30;99.90
11132;DHT22;5620;53.570;9.718;2023-04-15T09:34:02;13.30;99.90
11132;DHT22;5620;53.570;9.718;2023-04-15T09:36:37;13.40;94.60
11132;DHT22;5620;53.570;9.718;2023-04-15T09:39:05;13.50;88.40
11132;DHT22;5620;53.570;9.718;2023-04-15T09:41:34;13.60;33.10
11132;DHT22;5620;53.570;9.718;2023-04-15T09:43:59;13.70;1.00
11132;DHT22;5620;53.570;9.718;2023-04-15T09:46:44;13.90;1.00
11132;DHT22;5620;53.570;9.718;2023-04-15T09:49:12;13.90;1.00
11132;DHT22;5620;53.570;9.718;2023-04-15T09:51:39;14.00;1.00
11132;DHT22;5620;53.570;9.718;2023-04-15T09:54:07;14.00;1.00
11132;DHT22;5620;53.570;9.718;2023-04-15T09:56:38;14.00;1.00
11132;DHT22;5620;53.570;9.718;2023-04-15T09:59:05;14.00;1.00
11132;DHT22;5620;53.570;9.718;2023-04-15T10:01:33;14.20;1.00
11132;DHT22;5620;53.570;9.718;2023-04-15T10:04:02;14.40;1.00
11132;DHT22;5620;53.570;9.718;2023-04-15T10:06:31;14.70;1.00
11132;DHT22;5620;53.570;9.718;2023-04-15T10:08:59;14.80;99.90
11132;DHT22;5620;53.570;9.718;2023-04-15T10:11:32;15.00;99.90
11132;DHT22;5620;53.570;9.718;2023-04-15T10:14:03;15.30;99.90
11132;DHT22;5620;53.570;9.718;2023-04-15T10:16:32;15.40;99.90
11132;DHT22;5620;53.570;9.718;2023-04-15T10:19:02;15.40;99.90
11132;DHT22;5620;53.570;9.718;2023-04-15T10:21:30;15.50;99.90
11132;DHT22;5620;53.570;9.718;2023-04-15T10:23:58;15.80;99.90
11132;DHT22;5620;53.570;9.718;2023-04-15T10:26:26;16.10;97.90
11132;DHT22;5620;53.570;9.718;2023-04-15T10:28:54;16.30;74.70
11132;DHT22;5620;53.570;9.718;2023-04-15T10:31:20;16.50;14.50
11132;DHT22;5620;53.570;9.718;2023-04-15T10:33:47;16.70;1.00
11132;DHT22;5620;53.570;9.718;2023-04-15T10:36:19;16.90;1.00
11132;DHT22;5620;53.570;9.718;2023-04-15T10:38:46;17.00;1.00
11132;DHT22;5620;53.570;9.718;2023-04-15T10:41:30;16.90;1.00
11132;DHT22;5620;53.570;9.718;2023-04-15T10:44:14;17.00;1.00
11132;DHT22;5620;53.570;9.718;2023-04-15T10:46:45;17.30;1.00
11132;DHT22;5620;53.570;9.718;2023-04-15T10:49:15;17.60;1.00
11132;DHT22;5620;53.570;9.718;2023-04-15T10:51:57;17.60;1.00
11132;DHT22;5620;53.570;9.718;2023-04-15T10:54:32;17.60;1.00
11132;DHT22;5620;53.570;9.718;2023-04-15T10:57:22;17.40;1.00
11132;DHT22;5620;53.570;9.718;2023-04-15T11:02:45;18.20;99.90
11132;DHT22;5620;53.570;9.718;2023-04-15T11:05:16;18.50;99.90
11132;DHT22;5620;53.570;9.718;2023-04-15T11:07:49;19.00;99.90
11132;DHT22;5620;53.570;9.718;2023-04-15T11:13:25;20.20;99.90
11132;DHT22;5620;53.570;9.718;2023-04-15T11:15:49;20.70;99.90
11132;DHT22;5620;53.570;9.718;2023-04-15T11:18:23;21.90;99.90
11132;DHT22;5620;53.570;9.718;2023-04-15T11:20:54;23.50;99.90
11132;DHT22;5620;53.570;9.718;2023-04-15T11:23:32;25.40;96.80
11132;DHT22;5620;53.570;9.718;2023-04-15T11:26:05;26.10;4.50
11132;DHT22;5620;53.570;9.718;2023-04-15T11:28:31;26.10;1.00
11132;DHT22;5620;53.570;9.718;2023-04-15T11:31:11;25.40;1.00
11132;DHT22;5620;53.570;9.718;2023-04-15T11:34:02;24.80;1.00
11132;DHT22;5620;53.570;9.718;2023-04-15T11:36:30;25.70;1.00
11132;DHT22;5620;53.570;9.718;2023-04-15T11:38:58;25.50;1.00
11132;DHT22;5620;53.570;9.718;2023-04-15T11:41:27;24.20;1.00
11132;DHT22;5620;53.570;9.718;2023-04-15T11:43:54;22.90;1.00
11132;DHT22;5620;53.570;9.718;2023-04-15T11:46:28;21.90;1.00
11132;DHT22;5620;53.570;9.718;2023-04-15T11:48:55;21.50;1.00
11132;DHT22;5620;53.570;9.718;2023-04-15T11:51:22;21.60;1.00
11132;DHT22;5620;53.570;9.718;2023-04-15T11:53:50;21.50;1.00
11132;DHT22;5620;53.570;9.718;2023-04-15T11:56:21;21.50;1.00
11132;DHT22;5620;53.570;9.718;2023-04-15T11:58:50;21.50;1.00
11132;DHT22;5620;53.570;9.718;2023-04-15T12:01:17;21.60;1.00
11132;DHT22;5620;53.570;9.718;2023-04-15T12:03:48;21.70;1.00
11132;DHT22;5620;53.570;9.718;2023-04-15T12:06:21;21.70;1.00
11132;DHT22;5620;53.570;9.718;2023-04-15T12:09:09;21.30;1.00
11132;DHT22;5620;53.570;9.718;2023-04-15T12:11:56;21.00;1.00
11132;DHT22;5620;53.570;9.718;2023-04-15T12:14:35;21.10;1.00
11132;DHT22;5620;53.570;9.718;2023-04-15T12:17:07;21.40;1.00
11132;DHT22;5620;53.570;9.718;2023-04-15T12:19:55;21.70;1.00
11132;DHT22;5620;53.570;9.718;2023-04-15T12:22:21;21.80;1.00
11132;DHT22;5620;53.570;9.718;2023-04-15T12:24:55;21.80;1.00
11132;DHT22;5620;53.570;9.718;2023-04-15T12:27:26;22.00;1.00
11132;DHT22;5620;53.570;9.718;2023-04-15T12:30:03;22.10;1.00
11132;DHT22;5620;53.570;9.718;2023-04-15T12:32:38;21.80;1.00
11132;DHT22;5620;53.570;9.718;2023-04-15T12:35:05;21.30;1.00
11132;DHT22;5620;53.570;9.718;2023-04-15T12:37:33;21.10;1.00
11132;DHT22;5620;53.570;9.718;2023-04-15T12:40:00;21.00;1.00
11132;DHT22;5620;53.570;9.718;2023-04-15T12:42:27;20.80;1.00
11132;DHT22;5620;53.570;9.718;2023-04-15T12:44:52;20.70;1.00
11132;DHT22;5620;53.570;9.718;2023-04-15T12:47:18;20.60;1.00
11132;DHT22;5620;53.570;9.718;2023-04-15T12:49:45;20.60;1.00
11132;DHT22;5620;53.570;9.718;2023-04-15T12:52:15;20.90;1.00
11132;DHT22;5620;53.570;9.718;2023-04-15T12:54:42;21.20;1.00
11132;DHT22;5620;53.570;9.718;2023-04-15T12:57:10;21.00;1.00
11132;DHT22;5620;53.570;9.718;2023-04-15T12:59:39;20.80;1.00
11132;DHT22;5620;53.570;9.718;2023-04-15T13:02:07;20.40;1.00
11132;DHT22;5620;53.570;9.718;2023-04-15T13:04:36;20.20;1.00
11132;DHT22;5620;53.570;9.718;2023-04-15T13:07:04;20.00;1.00
11132;DHT22;5620;53.570;9.718;2023-04-15T13:09:31;20.00;1.00
11132;DHT22;5620;53.570;9.718;2023-04-15T13:11:59;19.90;1.00
11132;DHT22;5620;53.570;9.718;2023-04-15T13:14:26;19.90;1.00
11132;DHT22;5620;53.570;9.718;2023-04-15T13:16:52;20.00;1.00
11132;DHT22;5620;53.570;9.718;2023-04-15T13:19:19;19.90;1.00
11132;DHT22;5620;53.570;9.718;2023-04-15T13:21:45;19.90;1.00
11132;DHT22;5620;53.570;9.718;2023-04-15T13:24:12;19.80;1.00
11132;DHT22;5620;53.570;9.718;2023-04-15T13:26:40;19.60;1.00
11132;DHT22;5620;53.570;9.718;2023-04-15T13:29:07;19.70;1.00
11132;DHT22;5620;53.570;9.718;2023-04-15T13:31:34;19.70;1.00
11132;DHT22;5620;53.570;9.718;2023-04-15T13:34:01;19.60;1.00
11132;DHT22;5620;53.570;9.718;2023-04-15T13:36:29;19.60;1.00
11132;DHT22;5620;53.570;9.718;2023-04-15T13:38:56;19.40;1.00
11132;DHT22;5620;53.570;9.718;2023-04-15T13:41:24;19.10;1.00
11132;DHT22;5620;53.570;9.718;2023-04-15T13:43:52;19.10;1.00
11132;DHT22;5620;53.570;9.718;2023-04-15T13:46:19;19.60;1.00
11132;DHT22;5620;53.570;9.718;2023-04-15T13:48:46;20.30;1.00
11132;DHT22;5620;53.570;9.718;2023-04-15T13:51:13;20.90;1.00
11132;DHT22;5620;53.570;9.718;2023-04-15T13:53:38;21.20;1.00
11132;DHT22;5620;53.570;9.718;2023-04-15T13:56:06;20.90;1.00
11132;DHT22;5620;53.570;9.718;2023-04-15T13:58:37;20.60;1.00
11132;DHT22;5620;53.570;9.718;2023-04-15T14:01:04;20.30;1.00
11132;DHT22;5620;53.570;9.718;2023-04-15T14:03:34;20.30;1.00
11132;DHT22;5620;53.570;9.718;2023-04-15T14:06:01;21.10;1.00
11132;DHT22;5620;53.570;9.718;2023-04-15T14:08:29;22.70;1.00
11132;DHT22;5620;53.570;9.718;2023-04-15T14:10:54;23.80;1.00
11132;DHT22;5620;53.570;9.718;2023-04-15T14:13:20;25.00;1.00
11132;DHT22;5620;53.570;9.718;2023-04-15T14:15:46;26.60;1.00
11132;DHT22;5620;53.570;9.718;2023-04-15T14:18:13;28.60;1.00
11132;DHT22;5620;53.570;9.718;2023-04-15T14:20:39;31.10;1.00
11132;DHT22;5620;53.570;9.718;2023-04-15T14:23:06;31.80;1.00
11132;DHT22;5620;53.570;9.718;2023-04-15T14:25:33;33.10;1.00
11132;DHT22;5620;53.570;9.718;2023-04-15T14:28:03;34.10;1.00
11132;DHT22;5620;53.570;9.718;2023-04-15T14:30:33;33.60;1.00
11132;DHT22;5620;53.570;9.718;2023-04-15T14:33:00;32.20;1.00
11132;DHT22;5620;53.570;9.718;2023-04-15T14:35:28;32.00;1.00
11132;DHT22;5620;53.570;9.718;2023-04-15T14:37:54;32.30;1.00
11132;DHT22;5620;53.570;9.718;2023-04-15T14:40:21;31.10;1.00
11132;DHT22;5620;53.570;9.718;2023-04-15T14:42:51;30.80;1.00
11132;DHT22;5620;53.570;9.718;2023-04-15T14:45:18;30.00;1.00
11132;DHT22;5620;53.570;9.718;2023-04-15T14:47:46;29.10;1.00
11132;DHT22;5620;53.570;9.718;2023-04-15T14:50:14;28.10;1.00
11132;DHT22;5620;53.570;9.718;2023-04-15T14:52:42;26.60;1.00
11132;DHT22;5620;53.570;9.718;2023-04-15T14:55:11;25.30;1.00
11132;DHT22;5620;53.570;9.718;2023-04-15T14:57:39;24.70;1.00
11132;DHT22;5620;53.570;9.718;2023-04-15T15:00:09;24.60;1.00
11132;DHT22;5620;53.570;9.718;2023-04-15T15:02:37;24.50;1.00
11132;DHT22;5620;53.570;9.718;2023-04-15T15:05:04;24.30;1.00
11132;DHT22;5620;53.570;9.718;2023-04-15T15:07:32;23.80;1.00
11132;DHT22;5620;53.570;9.718;2023-04-15T15:10:02;23.20;1.00
11132;DHT22;5620;53.570;9.718;2023-04-15T15:12:29;22.30;1.00
11132;DHT22;5620;53.570;9.718;2023-04-15T15:14:55;21.60;1.00
11132;DHT22;5620;53.570;9.718;2023-04-15T15:17:22;21.20;1.00
11132;DHT22;5620;53.570;9.718;2023-04-15T15:19:48;21.00;1.00
11132;DHT22;5620;53.570;9.718;2023-04-15T15:22:15;20.90;1.00
11132;DHT22;5620;53.570;9.718;2023-04-15T15:24:40;20.80;1.00
11132;DHT22;5620;53.570;9.718;2023-04-15T15:27:08;20.90;1.00
11132;DHT22;5620;53.570;9.718;2023-04-15T15:29:35;20.60;1.00
11132;DHT22;5620;53.570;9.718;2023-04-15T15:32:02;20.10;1.00
11132;DHT22;5620;53.570;9.718;2023-04-15T15:34:27;19.60;1.00
11132;DHT22;5620;53.570;9.718;2023-04-15T15:36:53;19.10;1.00
11132;DHT22;5620;53.570;9.718;2023-04-15T15:39:25;18.90;1.00
11132;DHT22;5620;53.570;9.718;2023-04-15T15:41:54;18.70;1.00
11132;DHT22;5620;53.570;9.718;2023-04-15T15:50:29;18.10;1.00
11132;DHT22;5620;53.570;9.718;2023-04-15T15:52:56;18.00;1.00
11132;DHT22;5620;53.570;9.718;2023-04-15T15:55:23;18.00;1.00
11132;DHT22;5620;53.570;9.718;2023-04-15T15:57:51;18.00;1.00
11132;DHT22;5620;53.570;9.718;2023-04-15T16:00:18;17.90;1.00
11132;DHT22;5620;53.570;9.718;2023-04-15T16:08:54;17.30;1.00
11132;DHT22;5620;53.570;9.718;2023-04-15T16:11:22;17.20;1.00
11132;DHT22;5620;53.570;9.718;2023-04-15T16:13:49;17.20;1.00
11132;DHT22;5620;53.570;9.718;2023-04-15T16:16:16;16.90;1.00
11132;DHT22;5620;53.570;9.718;2023-04-15T16:22:20;16.30;1.00
11132;DHT22;5620;53.570;9.718;2023-04-15T16:24:46;16.10;1.00
11132;DHT22;5620;53.570;9.718;2023-04-15T16:27:13;16.00;1.00